Time;durP1;ratioP1;P1;durP2;ratioP2;P2;SDS_P1;SDS_P2;PMS_P1;PMS_P2;Temp;Humidity;BMP_temperature;BMP_pressure;BME280_temperature;BME280_humidity;BME280_pressure;Samples;Min_cycle;Max_cycle;Signal;HPM_P1;HPM_P2
2023/07/12 00:01:56;;;;;;;;;;;;;;;18.23;48.67;100546.17;105280;1286;67506;-82
2023/07/12 00:04:42;;;;;;;;;;;;;;;18.22;48.64;100544.78;105251;1286;72004;-83
2023/07/12 00:07:28;;;;;;;;;;;;;;;18.21;48.66;100538.91;105240;1287;61419;-83
2023/07/12 00:10:20;;;;;;;;;;;;;;;18.17;48.60;100540.48;105217;1287;61219;-83
2023/07/12 00:13:06;;;;;;;;;;;;;;;18.12;48.83;100539.00;105362;1287;73616;-83
2023/07/12 00:15:53;;;;;;;;;;;;;;;18.12;48.91;100535.88;105279;1291;66294;-83
2023/07/12 00:18:39;;;;;;;;;;;;;;;18.11;48.87;100537.17;105230;1286;71393;-82
2023/07/12 00:21:27;;;;;;;;;;;;;;;18.07;48.96;100531.45;105264;1286;61925;-83
2023/07/12 00:24:13;;;;;;;;;;;;;;;18.05;49.15;100528.21;105259;1286;61221;-83
2023/07/12 00:27:00;;;;;;;;;;;;;;;18.04;49.14;100522.14;105261;1291;73293;-82
2023/07/12 00:29:46;;;;;;;;;;;;;;;18.07;49.10;100516.27;105268;1287;68718;-82
2023/07/12 00:32:32;;;;;;;;;;;;;;;18.07;49.26;100509.08;105329;1289;72438;-82
2023/07/12 00:35:22;;;;;;;;;;;;;;;18.09;49.27;100507.09;105372;1286;61122;-82
2023/07/12 00:38:12;;;;;;;;;;;;;;;18.13;49.30;100501.66;105300;1286;62831;-83
2023/07/12 00:40:58;;;;;;;;;;;;;;;18.18;49.33;100496.15;105371;1288;74447;-82
2023/07/12 00:43:48;;;;;;;;;;;;;;;18.23;49.31;100497.14;105291;1291;67981;-83
2023/07/12 00:46:38;;;;;;;;;;;;;;;18.22;49.35;100503.61;105330;1286;72118;-82
2023/07/12 00:49:25;;;;;;;;;;;;;;;18.19;49.39;100500.14;105301;1286;60376;-83
2023/07/12 00:52:19;;;;;;;;;;;;;;;18.21;49.36;100494.44;105358;1287;61147;-82
2023/07/12 00:55:05;;;;;;;;;;;;;;;18.25;49.38;100495.09;105264;1286;75935;-82
2023/07/12 00:57:51;;;;;;;;;;;;;;;18.26;49.51;100497.84;105214;1289;68070;-82
2023/07/12 01:00:37;;;;;;;;;;;;;;;18.25;49.57;100499.13;105241;1286;71634;-82
2023/07/12 01:03:25;;;;;;;;;;;;;;;18.18;49.42;100502.78;105374;1286;61238;-82
2023/07/12 01:06:15;;;;;;;;;;;;;;;18.12;49.55;100503.41;105323;1286;60681;-82
2023/07/12 01:09:06;;;;;;;;;;;;;;;18.13;49.61;100499.75;98052;1288;10003370;-83
2023/07/12 01:11:52;;;;;;;;;;;;;;;18.08;49.70;100492.84;106576;1286;71354;-83
2023/07/12 01:14:39;;;;;;;;;;;;;;;18.02;49.67;100499.04;106567;1286;59580;-83
2023/07/12 01:17:26;;;;;;;;;;;;;;;17.99;49.64;100499.35;106555;1286;58890;-83
2023/07/12 01:20:12;;;;;;;;;;;;;;;18.00;49.70;100495.81;106453;1288;73366;-83
2023/07/12 01:22:58;;;;;;;;;;;;;;;18.01;49.61;100487.73;106586;1286;67209;-83
2023/07/12 01:25:45;;;;;;;;;;;;;;;18.03;49.79;100481.73;106398;1289;71063;-83
2023/07/12 01:28:31;;;;;;;;;;;;;;;18.02;49.80;100478.13;106457;1286;59193;-83
2023/07/12 01:31:17;;;;;;;;;;;;;;;18.02;49.90;100475.34;106655;1285;59334;-83
2023/07/12 01:34:04;;;;;;;;;;;;;;;17.98;49.88;100475.35;105937;1287;74470;-83
2023/07/12 01:36:50;;;;;;;;;;;;;;;17.96;49.92;100472.48;105286;1286;67965;-83
2023/07/12 01:39:36;;;;;;;;;;;;;;;17.97;49.97;100475.41;105353;1287;71258;-83
2023/07/12 01:42:22;;;;;;;;;;;;;;;17.96;49.93;100476.33;105315;1291;61238;-83
2023/07/12 01:45:08;;;;;;;;;;;;;;;17.95;49.97;100475.70;105293;1287;61386;-83
2023/07/12 01:47:56;;;;;;;;;;;;;;;17.96;49.97;100472.32;105236;1286;75890;-83
2023/07/12 01:50:42;;;;;;;;;;;;;;;17.94;49.97;100465.77;105286;1286;67362;-83
2023/07/12 01:53:29;;;;;;;;;;;;;;;17.93;50.06;100463.41;105328;1286;72303;-82
2023/07/12 01:56:15;;;;;;;;;;;;;;;17.91;50.23;100456.86;105248;1286;61286;-83
2023/07/12 01:59:01;;;;;;;;;;;;;;;17.85;50.15;100443.70;105376;1288;59721;-83
2023/07/12 02:01:48;;;;;;;;;;;;;;;17.75;50.31;100436.19;105196;1291;73198;-83
2023/07/12 02:04:34;;;;;;;;;;;;;;;17.63;50.36;100425.27;105414;1286;67390;-82
2023/07/12 02:07:20;;;;;;;;;;;;;;;17.57;50.43;100413.87;105324;1286;72456;-82
2023/07/12 02:10:08;;;;;;;;;;;;;;;17.51;50.43;100404.22;105304;1288;61285;-82
2023/07/12 02:12:54;;;;;;;;;;;;;;;17.48;50.56;100397.36;105332;1285;61180;-82
2023/07/12 02:15:40;;;;;;;;;;;;;;;17.48;50.56;100391.99;105130;1286;73326;-82
2023/07/12 02:18:26;;;;;;;;;;;;;;;17.50;50.66;100385.63;105294;1286;68722;-83
2023/07/12 02:21:12;;;;;;;;;;;;;;;17.50;50.64;100386.65;105299;1289;73908;-83
2023/07/12 02:24:00;;;;;;;;;;;;;;;17.47;50.64;100379.48;105265;1289;59356;-83
2023/07/12 02:26:46;;;;;;;;;;;;;;;17.50;50.61;100374.29;105307;1288;61260;-82
2023/07/12 02:29:32;;;;;;;;;;;;;;;17.52;50.65;100374.00;105374;1286;74848;-82
2023/07/12 02:32:20;;;;;;;;;;;;;;;17.53;50.67;100369.60;105199;1286;67606;-82
2023/07/12 02:35:07;;;;;;;;;;;;;;;17.54;50.70;100366.96;105327;1288;71204;-83
2023/07/12 02:37:53;;;;;;;;;;;;;;;17.53;50.72;100363.50;105190;1286;61034;-83
2023/07/12 02:40:39;;;;;;;;;;;;;;;17.54;50.66;100361.19;105336;1289;61164;-83
2023/07/12 02:43:25;;;;;;;;;;;;;;;17.56;50.64;100351.34;105220;1287;73583;-83
2023/07/12 02:46:11;;;;;;;;;;;;;;;17.54;50.62;100339.38;105336;1286;70111;-83
2023/07/12 02:48:57;;;;;;;;;;;;;;;17.51;50.61;100330.66;105367;1286;71148;-83
2023/07/12 02:51:43;;;;;;;;;;;;;;;17.47;50.62;100324.95;105354;1286;61336;-83
2023/07/12 02:54:33;;;;;;;;;;;;;;;17.46;50.69;100316.60;105266;1287;59659;-83
2023/07/12 02:57:19;;;;;;;;;;;;;;;17.48;50.67;100306.61;105346;1291;74652;-83
2023/07/12 03:00:06;;;;;;;;;;;;;;;17.48;50.70;100301.02;105334;1286;68784;-82
2023/07/12 03:02:52;;;;;;;;;;;;;;;17.47;50.78;100298.23;105375;1286;71159;-83
2023/07/12 03:05:39;;;;;;;;;;;;;;;17.50;50.76;100298.61;105352;1286;61086;-82
2023/07/12 03:08:26;;;;;;;;;;;;;;;17.54;50.79;100299.84;105162;1288;222027;-83
2023/07/12 03:11:14;;;;;;;;;;;;;;;17.60;50.79;100298.66;105305;1291;73262;-82
2023/07/12 03:14:00;;;;;;;;;;;;;;;17.71;50.91;100297.59;105293;1286;69448;-83
2023/07/12 03:16:46;;;;;;;;;;;;;;;17.76;50.76;100294.36;105170;1286;71191;-82
2023/07/12 03:19:35;;;;;;;;;;;;;;;17.82;50.84;100288.65;105319;1287;59654;-83
2023/07/12 03:22:21;;;;;;;;;;;;;;;17.87;50.86;100285.61;105262;1288;60377;-82
2023/07/12 03:25:07;;;;;;;;;;;;;;;17.94;50.93;100281.95;105358;1286;73962;-83
2023/07/12 03:27:54;;;;;;;;;;;;;;;18.03;50.89;100273.80;105348;1288;68382;-83
2023/07/12 03:30:39;;;;;;;;;;;;;;;18.11;50.87;100264.33;105267;1285;72720;-83
2023/07/12 03:33:26;;;;;;;;;;;;;;;18.16;50.78;100259.87;105270;1286;62040;-83
2023/07/12 03:36:12;;;;;;;;;;;;;;;18.19;50.71;100255.34;105225;1289;61263;-82
2023/07/12 03:38:59;;;;;;;;;;;;;;;18.26;50.93;100248.66;105339;1285;74877;-83
2023/07/12 03:41:45;;;;;;;;;;;;;;;18.34;50.76;100238.09;105303;1286;67205;-83
2023/07/12 03:44:31;;;;;;;;;;;;;;;18.41;50.67;100233.52;105174;1286;72592;-82
2023/07/12 03:47:17;;;;;;;;;;;;;;;18.47;50.74;100232.65;105246;1288;61286;-83
2023/07/12 03:50:03;;;;;;;;;;;;;;;18.55;50.78;100236.45;105421;1286;61521;-83
2023/07/12 03:52:49;;;;;;;;;;;;;;;18.60;50.76;100232.67;105375;1286;73192;-83
2023/07/12 03:55:39;;;;;;;;;;;;;;;18.67;50.69;100230.94;105272;1286;69867;-83
2023/07/12 03:58:27;;;;;;;;;;;;;;;18.75;50.79;100231.14;105202;1289;71481;-83
2023/07/12 04:01:13;;;;;;;;;;;;;;;18.81;50.80;100225.00;105280;1288;61241;-83
2023/07/12 04:03:59;;;;;;;;;;;;;;;18.90;50.78;100222.97;105252;1288;61094;-83
2023/07/12 04:06:45;;;;;;;;;;;;;;;19.01;51.03;100219.16;105320;1286;73347;-83
2023/07/12 04:09:31;;;;;;;;;;;;;;;19.14;50.96;100219.83;105355;1290;68098;-83
2023/07/12 04:12:17;;;;;;;;;;;;;;;19.27;50.91;100209.98;105335;1291;72394;-83
2023/07/12 04:15:04;;;;;;;;;;;;;;;19.39;50.83;100201.58;105134;1286;61218;-83
2023/07/12 04:17:50;;;;;;;;;;;;;;;19.52;50.84;100199.22;105277;1286;61969;-83
2023/07/12 04:20:38;;;;;;;;;;;;;;;19.64;50.75;100192.08;105398;1288;73194;-83
2023/07/12 04:23:25;;;;;;;;;;;;;;;19.76;50.75;100183.40;105258;1289;69960;-83
2023/07/12 04:26:11;;;;;;;;;;;;;;;19.87;50.69;100183.46;106591;1285;71352;-84
2023/07/12 04:28:57;;;;;;;;;;;;;;;19.97;50.67;100178.85;105511;1288;61173;-83
2023/07/12 04:31:43;;;;;;;;;;;;;;;20.05;50.52;100179.38;105394;1287;61324;-83
2023/07/12 04:34:29;;;;;;;;;;;;;;;20.10;50.52;100172.71;105366;1286;75948;-83
2023/07/12 04:37:16;;;;;;;;;;;;;;;20.18;50.55;100174.39;105240;1286;68185;-83
2023/07/12 04:40:02;;;;;;;;;;;;;;;20.24;50.57;100172.77;105390;1286;71156;-83
2023/07/12 04:42:48;;;;;;;;;;;;;;;20.29;50.55;100177.16;105269;1286;61459;-83
2023/07/12 04:45:34;;;;;;;;;;;;;;;20.34;50.43;100171.58;105233;1291;61049;-84
2023/07/12 04:48:20;;;;;;;;;;;;;;;20.37;50.50;100167.00;105364;1285;73224;-83
2023/07/12 04:51:06;;;;;;;;;;;;;;;20.40;50.35;100163.11;105386;1288;67418;-83
2023/07/12 04:53:52;;;;;;;;;;;;;;;20.42;50.23;100161.59;105207;1286;71353;-83
2023/07/12 04:56:38;;;;;;;;;;;;;;;20.46;50.23;100161.66;105267;1286;61269;-83
2023/07/12 04:59:25;;;;;;;;;;;;;;;20.51;50.31;100169.61;105339;1286;61624;-83
2023/07/12 05:02:11;;;;;;;;;;;;;;;20.53;50.18;100172.81;105203;1289;73540;-83
2023/07/12 05:04:57;;;;;;;;;;;;;;;20.53;50.15;100170.00;105261;1286;67528;-83
2023/07/12 05:07:43;;;;;;;;;;;;;;;20.55;50.13;100168.86;105281;1286;71279;-83
2023/07/12 05:10:30;;;;;;;;;;;;;;;20.56;50.18;100168.27;105399;1286;61234;-83
2023/07/12 05:13:16;;;;;;;;;;;;;;;20.57;50.14;100171.84;105267;1288;61161;-83
2023/07/12 05:16:02;;;;;;;;;;;;;;;20.58;50.10;100180.89;105223;1286;73444;-83
2023/07/12 05:18:48;;;;;;;;;;;;;;;20.59;50.07;100179.44;105262;1287;68363;-83
2023/07/12 05:21:34;;;;;;;;;;;;;;;20.61;50.02;100175.34;105313;1286;71327;-83
2023/07/12 05:24:20;;;;;;;;;;;;;;;20.61;50.17;100174.09;105375;1288;61071;-83
2023/07/12 05:27:06;;;;;;;;;;;;;;;20.58;50.17;100188.09;105326;1287;61267;-83
2023/07/12 05:29:52;;;;;;;;;;;;;;;20.59;50.22;100202.23;105370;1285;73209;-83
2023/07/12 05:32:40;;;;;;;;;;;;;;;20.60;50.36;100217.90;105262;1287;67478;-83
2023/07/12 05:35:26;;;;;;;;;;;;;;;20.61;50.22;100238.70;105240;1286;71252;-83
2023/07/12 05:38:12;;;;;;;;;;;;;;;20.61;50.25;100294.90;105407;1287;59518;-83
2023/07/12 05:40:59;;;;;;;;;;;;;;;20.60;50.30;100337.20;105285;1285;61209;-83
2023/07/12 05:43:45;;;;;;;;;;;;;;;20.56;50.09;100257.75;105363;1285;75950;-83
2023/07/12 05:46:31;;;;;;;;;;;;;;;20.52;50.23;100281.12;105282;1285;67159;-83
2023/07/12 05:49:17;;;;;;;;;;;;;;;20.51;50.13;100264.36;105313;1287;73062;-83
2023/07/12 05:52:03;;;;;;;;;;;;;;;20.45;50.18;100231.11;105284;1286;61343;-83
2023/07/12 05:54:49;;;;;;;;;;;;;;;20.44;50.27;100262.66;105454;1286;62844;-83
2023/07/12 05:57:35;;;;;;;;;;;;;;;20.45;50.21;100269.65;105354;1286;73136;-83
2023/07/12 06:00:21;;;;;;;;;;;;;;;20.46;50.39;100262.22;105327;1286;68594;-83
2023/07/12 06:03:08;;;;;;;;;;;;;;;20.48;50.35;100259.83;105383;1286;73409;-83
2023/07/12 06:05:54;;;;;;;;;;;;;;;20.48;50.20;100261.91;105384;1286;61157;-83
2023/07/12 06:08:40;;;;;;;;;;;;;;;20.50;50.34;100246.41;105285;1288;61139;-83
2023/07/12 06:11:26;;;;;;;;;;;;;;;20.49;50.30;100229.80;105412;1288;73253;-83
2023/07/12 06:14:13;;;;;;;;;;;;;;;20.49;50.34;100229.98;105343;1286;67251;-83
2023/07/12 06:16:59;;;;;;;;;;;;;;;20.54;50.38;100235.84;105417;1289;73887;-83
2023/07/12 06:19:45;;;;;;;;;;;;;;;20.58;50.50;100242.55;105320;1286;61447;-83
2023/07/12 06:22:31;;;;;;;;;;;;;;;20.63;50.55;100239.61;105374;1286;61292;-83
2023/07/12 06:25:17;;;;;;;;;;;;;;;20.68;50.63;100235.42;105348;1287;76635;-83
2023/07/12 06:28:03;;;;;;;;;;;;;;;20.72;50.79;100231.48;105333;1286;67465;-83
2023/07/12 06:30:50;;;;;;;;;;;;;;;20.68;50.94;100229.30;105341;1286;71279;-83
2023/07/12 06:33:38;;;;;;;;;;;;;;;20.55;51.24;100215.11;105280;1286;61310;-83
2023/07/12 06:36:24;;;;;;;;;;;;;;;20.51;51.54;100209.91;105279;1288;63661;-83
2023/07/12 06:39:10;;;;;;;;;;;;;;;20.52;51.58;100207.61;105233;1286;77261;-83
2023/07/12 06:41:56;;;;;;;;;;;;;;;20.49;51.83;100203.33;105306;1286;71255;-83
2023/07/12 06:44:42;;;;;;;;;;;;;;;20.49;51.81;100203.91;105335;1286;72009;-83
2023/07/12 06:47:31;;;;;;;;;;;;;;;20.44;51.88;100206.69;105369;1287;59208;-83
2023/07/12 06:50:17;;;;;;;;;;;;;;;20.38;52.10;100200.70;105453;1285;61137;-83
2023/07/12 06:53:03;;;;;;;;;;;;;;;20.33;52.29;100198.61;105374;1288;74329;-83
2023/07/12 06:55:49;;;;;;;;;;;;;;;20.29;52.41;100174.18;105340;1286;67379;-83
2023/07/12 06:58:35;;;;;;;;;;;;;;;20.25;52.58;100157.27;105289;1288;71153;-83
2023/07/12 07:01:21;;;;;;;;;;;;;;;20.21;52.71;100141.41;105399;1288;61273;-83
2023/07/12 07:04:07;;;;;;;;;;;;;;;20.14;52.78;100128.06;105153;1286;314057;-83
2023/07/12 07:06:53;;;;;;;;;;;;;;;20.04;52.99;100113.09;105274;1288;74534;-83
2023/07/12 07:09:39;;;;;;;;;;;;;;;20.07;53.09;100105.07;105360;1286;69349;-83
2023/07/12 07:12:28;;;;;;;;;;;;;;;19.92;53.45;100100.03;105337;1286;71227;-83
2023/07/12 07:15:14;;;;;;;;;;;;;;;19.83;53.75;100105.29;105315;1286;60345;-83
2023/07/12 07:18:01;;;;;;;;;;;;;;;19.81;53.85;100102.12;105292;1289;61096;-83
2023/07/12 07:20:47;;;;;;;;;;;;;;;19.78;53.95;100109.98;105313;1288;73119;-83
2023/07/12 07:23:33;;;;;;;;;;;;;;;19.78;53.96;100100.73;105347;1290;68238;-83
2023/07/12 07:26:19;;;;;;;;;;;;;;;19.70;54.01;100085.32;105384;1285;72148;-83
2023/07/12 07:29:05;;;;;;;;;;;;;;;19.65;54.25;100081.50;105194;1286;59336;-83
2023/07/12 07:31:51;;;;;;;;;;;;;;;19.59;54.39;100065.05;105399;1287;64750;-83
2023/07/12 07:34:37;;;;;;;;;;;;;;;19.60;54.29;100049.79;105358;1287;77331;-83
2023/07/12 07:37:24;;;;;;;;;;;;;;;19.60;54.48;100042.80;105155;1288;68654;-83
2023/07/12 07:40:10;;;;;;;;;;;;;;;19.56;54.57;100055.28;105417;1288;72565;-83
2023/07/12 07:42:56;;;;;;;;;;;;;;;19.52;54.75;100077.05;105405;1285;62275;-83
2023/07/12 07:45:43;;;;;;;;;;;;;;;19.57;55.01;100129.54;105283;1287;59372;-83
2023/07/12 07:48:29;;;;;;;;;;;;;;;19.59;54.81;100149.70;105401;1286;76066;-83
2023/07/12 07:51:16;;;;;;;;;;;;;;;19.60;54.88;100175.17;105354;1286;67297;-83
2023/07/12 07:54:02;;;;;;;;;;;;;;;19.61;54.81;100182.63;105348;1286;71203;-83
2023/07/12 07:56:48;;;;;;;;;;;;;;;19.59;55.01;100177.64;105392;1286;61234;-83
2023/07/12 07:59:35;;;;;;;;;;;;;;;19.59;55.27;100168.04;105290;1286;61159;-83
2023/07/12 08:02:22;;;;;;;;;;;;;;;19.62;55.25;100166.98;105444;1288;73328;-83
2023/07/12 08:05:09;;;;;;;;;;;;;;;19.67;55.51;100182.79;105514;1286;67432;-83
2023/07/12 08:07:56;;;;;;;;;;;;;;;19.71;55.45;100165.92;105326;1286;75348;-83
2023/07/12 08:10:42;;;;;;;;;;;;;;;19.72;55.39;100157.29;105454;1288;59339;-83
2023/07/12 08:13:29;;;;;;;;;;;;;;;19.74;55.57;100154.36;105356;1286;61534;-83
2023/07/12 08:16:15;;;;;;;;;;;;;;;19.77;55.63;100146.95;105326;1286;73321;-83
2023/07/12 08:19:03;;;;;;;;;;;;;;;19.80;55.73;100146.98;105442;1285;67269;-83
2023/07/12 08:21:49;;;;;;;;;;;;;;;19.82;55.75;100143.66;105462;1286;72089;-83
2023/07/12 08:24:35;;;;;;;;;;;;;;;19.85;55.85;100142.79;105347;1287;59408;-83
2023/07/12 08:27:21;;;;;;;;;;;;;;;19.87;55.75;100145.69;105448;1288;61256;-83
2023/07/12 08:30:08;;;;;;;;;;;;;;;19.87;55.85;100138.70;105427;1289;73262;-83
2023/07/12 08:32:54;;;;;;;;;;;;;;;19.84;55.97;100130.77;106596;1288;68470;-84
2023/07/12 08:35:40;;;;;;;;;;;;;;;19.87;56.06;100138.54;106307;1285;71131;-84
2023/07/12 08:38:31;;;;;;;;;;;;;;;19.88;56.31;100144.39;106596;1285;58992;-84
2023/07/12 08:41:18;;;;;;;;;;;;;;;19.90;56.27;100135.16;106428;1285;59047;-84
2023/07/12 08:44:07;;;;;;;;;;;;;;;19.88;56.46;100122.89;106035;1286;73391;-83
2023/07/12 08:46:58;;;;;;;;;;;;;;;19.91;56.52;100120.38;105510;1286;70058;-83
2023/07/12 08:49:44;;;;;;;;;;;;;;;19.99;56.77;100121.51;105401;1286;71422;-83
2023/07/12 08:52:32;;;;;;;;;;;;;;;20.07;56.68;100123.26;105530;1286;61282;-83
2023/07/12 08:55:19;;;;;;;;;;;;;;;20.14;56.87;100126.13;105414;1286;61397;-83
2023/07/12 08:58:12;;;;;;;;;;;;;;;20.20;56.90;100120.34;105315;1286;77769;-83
2023/07/12 09:01:09;;;;;;;;;;;;;;;20.28;56.88;100108.42;105502;1286;67351;-83
2023/07/12 09:03:55;;;;;;;;;;;;;;;20.35;57.13;100110.19;105466;1286;74097;-83
2023/07/12 09:06:42;;;;;;;;;;;;;;;20.40;57.36;100107.64;105502;1287;60781;-83
2023/07/12 09:09:32;;;;;;;;;;;;;;;20.42;57.09;100093.52;105359;1285;61178;-83
2023/07/12 09:12:27;;;;;;;;;;;;;;;20.38;57.41;100087.08;105303;1286;74270;-83
2023/07/12 09:15:13;;;;;;;;;;;;;;;20.36;57.45;100091.63;105443;1286;71617;-83
2023/07/12 09:17:59;;;;;;;;;;;;;;;20.38;57.50;100131.25;105191;1285;72955;-83
2023/07/12 09:20:48;;;;;;;;;;;;;;;20.40;57.56;100133.19;105271;1286;212771;-83
2023/07/12 09:23:38;;;;;;;;;;;;;;;20.45;57.55;100135.51;105412;1285;61243;-84
2023/07/12 09:26:29;;;;;;;;;;;;;;;20.49;57.60;100125.11;105354;1286;72940;-84
2023/07/12 09:29:19;;;;;;;;;;;;;;;20.50;57.62;100115.92;105438;1286;67407;-84
2023/07/12 09:32:17;;;;;;;;;;;;;;;20.50;57.70;100098.96;105326;1285;73119;-83
2023/07/12 09:35:21;;;;;;;;;;;;;;;20.49;57.79;100096.39;105490;1285;61139;-83
2023/07/12 09:38:12;;;;;;;;;;;;;;;20.49;57.98;100097.95;105458;1285;61192;-83
2023/07/12 09:41:07;;;;;;;;;;;;;;;20.45;58.08;100096.27;105335;1285;73150;-83
2023/07/12 09:43:54;;;;;;;;;;;;;;;20.34;58.17;100099.63;105485;1287;67474;-83
2023/07/12 09:46:45;;;;;;;;;;;;;;;20.28;58.49;100116.67;105509;1285;73932;-83
2023/07/12 09:49:46;;;;;;;;;;;;;;;20.32;58.54;100120.18;105442;1288;59018;-83
2023/07/12 09:52:48;;;;;;;;;;;;;;;20.37;58.57;100120.59;105491;1289;61145;-83
2023/07/12 09:55:44;;;;;;;;;;;;;;;20.44;58.57;100120.17;105440;1287;75771;-83
2023/07/12 09:58:35;;;;;;;;;;;;;;;20.50;58.89;100114.70;105520;1285;70049;-83
2023/07/12 10:01:36;;;;;;;;;;;;;;;20.53;58.87;100113.64;105495;1285;73594;-83
2023/07/12 10:04:45;;;;;;;;;;;;;;;20.61;59.01;100112.23;105483;1286;61344;-83
2023/07/12 10:07:31;;;;;;;;;;;;;;;20.73;59.09;100106.69;104911;1292;60119;-84
2023/07/12 10:10:17;;;;;;;;;;;;;;;20.82;59.09;100115.55;104869;1293;73382;-83
2023/07/12 10:13:22;;;;;;;;;;;;;;;20.91;59.13;100117.96;104932;1294;67127;-84
2023/07/12 10:16:12;;;;;;;;;;;;;;;21.01;59.24;100122.89;104885;1294;71277;-84
2023/07/12 10:19:00;;;;;;;;;;;;;;;21.08;59.18;100129.40;104835;1294;61168;-84
2023/07/12 10:21:48;;;;;;;;;;;;;;;21.17;59.36;100121.61;104957;1293;61788;-84
2023/07/12 10:24:38;;;;;;;;;;;;;;;21.32;59.30;100118.68;104999;1294;73333;-84
2023/07/12 10:27:28;;;;;;;;;;;;;;;21.46;59.33;100114.34;104846;1294;68400;-84
2023/07/12 10:30:17;;;;;;;;;;;;;;;21.63;59.39;100117.00;104857;1297;71528;-84
2023/07/12 10:33:17;;;;;;;;;;;;;;;21.79;59.51;100123.43;104733;1293;61103;-84
2023/07/12 10:36:15;;;;;;;;;;;;;;;21.98;59.73;100122.45;104810;1294;61110;-84
2023/07/12 10:39:01;;;;;;;;;;;;;;;22.27;59.63;100121.23;90155;1296;5004896;-84
2023/07/12 10:41:50;;;;;;;;;;;;;;;22.53;59.72;100121.23;104783;1293;71318;-84
2023/07/12 10:44:42;;;;;;;;;;;;;;;22.82;59.74;100118.54;105110;1285;60953;-84
2023/07/12 10:47:31;;;;;;;;;;;;;;;23.19;59.89;100120.49;105494;1287;59254;-84
2023/07/12 10:50:20;;;;;;;;;;;;;;;23.44;59.56;100122.45;105521;1288;73838;-84
2023/07/12 10:53:21;;;;;;;;;;;;;;;23.62;59.56;100121.09;105569;1286;67664;-84
2023/07/12 10:56:24;;;;;;;;;;;;;;;23.83;59.47;100112.20;105675;1287;71450;-84
2023/07/12 10:59:32;;;;;;;;;;;;;;;24.05;59.26;100108.64;105610;1289;61029;-84
2023/07/12 11:02:25;;;;;;;;;;;;;;;24.29;59.32;100107.41;105576;1288;61204;-84
2023/07/12 11:05:30;;;;;;;;;;;;;;;24.58;59.49;100112.59;105599;1287;74324;-84
2023/07/12 11:08:31;;;;;;;;;;;;;;;24.77;59.16;100118.28;105551;1286;66176;-84
2023/07/12 11:11:17;;;;;;;;;;;;;;;24.86;59.10;100119.66;105483;1286;72565;-84
2023/07/12 11:14:17;;;;;;;;;;;;;;;24.92;59.33;100118.71;105479;1285;61154;-84
2023/07/12 11:17:25;;;;;;;;;;;;;;;25.12;59.31;100115.15;105555;1286;61192;-84
2023/07/12 11:20:20;;;;;;;;;;;;;;;25.35;59.51;100115.11;104929;1295;78057;-84
2023/07/12 11:23:06;;;;;;;;;;;;;;;25.58;59.14;100108.88;105007;1294;68399;-85
2023/07/12 11:25:57;;;;;;;;;;;;;;;25.70;59.01;100108.54;104851;1292;71358;-84
2023/07/12 11:28:44;;;;;;;;;;;;;;;25.81;59.11;100108.80;104842;1295;61267;-84
2023/07/12 11:31:32;;;;;;;;;;;;;;;26.02;59.21;100104.85;104871;1292;59467;-85
2023/07/12 11:34:23;;;;;;;;;;;;;;;26.16;58.92;100091.58;104878;1293;74323;-84
2023/07/12 11:37:15;;;;;;;;;;;;;;;26.19;58.87;100087.80;105005;1293;67442;-84
2023/07/12 11:40:01;;;;;;;;;;;;;;;26.21;58.82;100073.06;104867;1294;71229;-84
2023/07/12 11:42:47;;;;;;;;;;;;;;;26.30;59.05;100073.53;104846;1294;61170;-84
2023/07/12 11:45:33;;;;;;;;;;;;;;;26.34;58.76;100082.36;104908;1294;62460;-84
2023/07/12 11:48:20;;;;;;;;;;;;;;;26.37;58.93;100081.41;104798;1293;74547;-84
2023/07/12 11:51:08;;;;;;;;;;;;;;;26.52;59.02;100080.33;104929;1294;67407;-84
2023/07/12 11:53:56;;;;;;;;;;;;;;;26.67;58.83;100085.15;104911;1295;73946;-85
2023/07/12 11:56:44;;;;;;;;;;;;;;;26.66;58.66;100109.86;105038;1287;61116;-84
2023/07/12 11:59:39;;;;;;;;;;;;;;;26.56;58.61;100115.66;105452;1286;61147;-84
2023/07/12 12:02:25;;;;;;;;;;;;;;;26.42;58.48;100102.35;105410;1288;76055;-84
2023/07/12 12:05:16;;;;;;;;;;;;;;;26.29;58.66;100100.06;105471;1286;68304;-85
2023/07/12 12:08:03;;;;;;;;;;;;;;;26.21;58.79;100104.53;105579;1286;71275;-84
2023/07/12 12:10:50;;;;;;;;;;;;;;;26.11;58.93;100112.35;105387;1288;59465;-84
2023/07/12 12:13:41;;;;;;;;;;;;;;;25.99;59.22;100120.29;105541;1288;60552;-84
2023/07/12 12:16:28;;;;;;;;;;;;;;;25.86;59.38;100123.95;105537;1288;73317;-84
2023/07/12 12:19:16;;;;;;;;;;;;;;;25.68;59.33;100115.56;105427;1285;66634;-84
2023/07/12 12:22:04;;;;;;;;;;;;;;;25.51;59.52;100119.33;105448;1288;72063;-84
2023/07/12 12:24:54;;;;;;;;;;;;;;;25.30;59.47;100108.48;105475;1286;59248;-84
2023/07/12 12:27:42;;;;;;;;;;;;;;;25.10;59.71;100090.96;105406;1288;61432;-84
2023/07/12 12:30:32;;;;;;;;;;;;;;;24.93;59.81;100100.31;105410;1288;74504;-84
2023/07/12 12:33:23;;;;;;;;;;;;;;;24.81;60.01;100109.24;105498;1290;68542;-84
2023/07/12 12:36:16;;;;;;;;;;;;;;;24.85;60.30;100104.56;105527;1289;75131;-84
2023/07/12 12:39:08;;;;;;;;;;;;;;;24.99;60.36;100111.61;105537;1287;61298;-84
2023/07/12 12:41:56;;;;;;;;;;;;;;;25.14;60.22;100117.64;105580;1288;61310;-85
2023/07/12 12:44:43;;;;;;;;;;;;;;;25.26;60.25;100122.42;105550;1289;73297;-85
2023/07/12 12:47:32;;;;;;;;;;;;;;;25.40;60.33;100121.95;105641;1289;68991;-84
2023/07/12 12:50:19;;;;;;;;;;;;;;;25.48;60.25;100112.88;105525;1288;75860;-84
2023/07/12 12:53:05;;;;;;;;;;;;;;;25.52;60.26;100114.45;105604;1291;61116;-85
2023/07/12 12:55:51;;;;;;;;;;;;;;;25.54;60.19;100120.00;105500;1287;59636;-84
2023/07/12 12:58:37;;;;;;;;;;;;;;;25.58;60.35;100120.70;105620;1288;73505;-84
2023/07/12 13:01:23;;;;;;;;;;;;;;;25.65;60.24;100124.48;105632;1288;69610;-84
2023/07/12 13:04:09;;;;;;;;;;;;;;;25.68;60.24;100128.64;105626;1288;71409;-84
2023/07/12 13:06:55;;;;;;;;;;;;;;;25.67;60.24;100132.09;105606;1286;61259;-85
2023/07/12 13:09:41;;;;;;;;;;;;;;;25.67;60.29;100134.91;105454;1288;61144;-84
2023/07/12 13:12:27;;;;;;;;;;;;;;;25.72;60.42;100132.69;105479;1285;73188;-84
2023/07/12 13:15:28;;;;;;;;;;;;;;;25.78;60.30;100133.70;105500;1285;68356;-84
2023/07/12 13:18:14;;;;;;;;;;;;;;;25.79;60.49;100130.04;105502;1289;71491;-84
2023/07/12 13:21:00;;;;;;;;;;;;;;;25.81;60.50;100130.91;105470;1287;61030;-84
2023/07/12 13:23:46;;;;;;;;;;;;;;;25.79;60.55;100131.61;105524;1285;61195;-84
2023/07/12 13:26:34;;;;;;;;;;;;;;;25.75;60.59;100134.63;105632;1290;75117;-84
2023/07/12 13:29:20;;;;;;;;;;;;;;;25.70;60.65;100130.92;105550;1288;67260;-84
2023/07/12 13:32:11;;;;;;;;;;;;;;;25.75;60.90;100132.88;105579;1289;71209;-84
2023/07/12 13:34:57;;;;;;;;;;;;;;;25.83;60.88;100133.89;105600;1285;61067;-84
2023/07/12 13:37:43;;;;;;;;;;;;;;;25.89;60.81;100140.12;105508;1286;65149;-84
2023/07/12 13:40:30;;;;;;;;;;;;;;;25.93;61.00;100140.75;105488;1286;73727;-84
2023/07/12 13:43:16;;;;;;;;;;;;;;;25.99;61.04;100145.03;105523;1287;68578;-84
2023/07/12 13:46:02;;;;;;;;;;;;;;;26.01;60.92;100138.27;105559;1286;72161;-84
2023/07/12 13:48:48;;;;;;;;;;;;;;;26.02;61.08;100128.48;105412;1287;62425;-84
2023/07/12 13:51:34;;;;;;;;;;;;;;;26.06;61.01;100131.30;105536;1286;63633;-84
2023/07/12 13:54:20;;;;;;;;;;;;;;;26.07;61.07;100135.41;105481;1288;73147;-84
2023/07/12 13:57:15;;;;;;;;;;;;;;;26.11;61.01;100136.15;105580;1288;66750;-84
2023/07/12 14:00:03;;;;;;;;;;;;;;;26.16;60.92;100137.80;105463;1286;75485;-84
2023/07/12 14:02:50;;;;;;;;;;;;;;;26.20;60.94;100141.95;105520;1286;59313;-84
2023/07/12 14:05:36;;;;;;;;;;;;;;;26.24;60.78;100146.67;105588;1285;61323;-84
2023/07/12 14:08:22;;;;;;;;;;;;;;;26.27;60.66;100142.49;105558;1285;73246;-84
2023/07/12 14:11:28;;;;;;;;;;;;;;;26.34;60.89;100139.28;105583;1285;67447;-84